Time;durP1;ratioP1;P1;durP2;ratioP2;P2;SDS_P1;SDS_P2;PMS_P1;PMS_P2;Temp;Humidity;BMP_temperature;BMP_pressure;BME280_temperature;BME280_humidity;BME280_pressure;Samples;Min_cycle;Max_cycle;Signal;HPM_P1;HPM_P2
2023/07/20 00:00:34;;;;;;;8.25;3.80;;;;;;;20.03;86.92;96510.34;4983209;28;20055;-70
2023/07/20 00:03:16;;;;;;;8.05;3.63;;;;;;;19.84;85.63;96514.75;4983906;28;20038;-70
2023/07/20 00:05:45;;;;;;;11.50;3.45;;;;;;;19.84;87.49;96512.78;4983623;28;20042;-71
2023/07/20 00:08:11;;;;;;;10.18;3.72;;;;;;;19.81;87.26;96507.31;4978686;28;20135;-69
2023/07/20 00:10:36;;;;;;;7.47;3.67;;;;;;;19.67;86.70;96525.81;4983161;28;20058;-70
2023/07/20 00:13:02;;;;;;;11.00;3.97;;;;;;;19.50;87.74;96515.91;4986480;28;20038;-71
2023/07/20 00:15:28;;;;;;;7.82;4.20;;;;;;;19.10;93.18;96521.47;4983616;28;20042;-71
2023/07/20 00:17:53;;;;;;;9.52;3.88;;;;;;;18.94;94.64;96513.09;4986370;28;20100;-72
2023/07/20 00:20:19;;;;;;;7.43;3.75;;;;;;;19.06;95.00;96510.44;4980257;28;20101;-70
2023/07/20 00:22:44;;;;;;;7.10;3.40;;;;;;;19.19;94.47;96518.13;4995749;28;20571;-71
2023/07/20 00:25:11;;;;;;;9.10;3.42;;;;;;;19.25;94.27;96516.44;4999587;28;20042;-70
2023/07/20 00:27:37;;;;;;;8.95;4.53;;;;;;;19.15;95.18;96509.09;5004006;28;20069;-71
2023/07/20 00:30:04;;;;;;;6.95;3.47;;;;;;;19.08;96.92;96510.03;5000701;28;20133;-68
2023/07/20 00:32:29;;;;;;;7.88;3.72;;;;;;;19.17;97.75;96509.47;5005552;28;20050;-70
2023/07/20 00:34:54;;;;;;;7.05;3.60;;;;;;;18.98;97.59;96505.47;5006418;28;20056;-72
2023/07/20 00:37:20;;;;;;;7.20;3.80;;;;;;;18.85;99.20;96521.97;5000027;28;20042;-72
2023/07/20 00:39:45;;;;;;;6.38;3.30;;;;;;;18.93;100.00;96519.88;5004494;28;20057;-72
2023/07/20 00:42:10;;;;;;;10.30;3.88;;;;;;;19.17;98.79;96517.78;4998985;28;20491;-71
2023/07/20 00:44:36;;;;;;;6.07;3.05;;;;;;;19.43;96.10;96514.06;5002563;28;20443;-69
2023/07/20 00:47:01;;;;;;;8.52;3.97;;;;;;;19.55;93.73;96518.16;5003417;28;20092;-72
2023/07/20 00:49:27;;;;;;;6.40;3.80;;;;;;;19.60;92.95;96509.31;5000595;23;20051;-69
2023/07/20 00:51:52;;;;;;;5.88;3.13;;;;;;;19.65;91.56;96517.13;4968054;28;20141;-68
2023/07/20 00:54:18;;;;;;;9.35;3.50;;;;;;;19.62;90.33;96517.22;4958353;28;20495;-66
2023/07/20 00:56:44;;;;;;;6.18;3.50;;;;;;;19.65;91.10;96522.69;4982799;28;20877;-67
2023/07/20 00:59:11;;;;;;;5.07;2.92;;;;;;;19.76;87.52;96514.16;4966505;28;20042;-67
2023/07/20 01:01:36;;;;;;;8.73;3.15;;;;;;;19.94;87.44;96507.41;4945736;28;20137;-67
2023/07/20 01:04:02;;;;;;;7.28;3.72;;;;;;;19.71;89.95;96511.06;4964990;28;20153;-67
2023/07/20 01:06:50;;;;;;;10.02;3.92;;;;;;;19.31;94.27;96519.50;4958930;28;20043;-68
2023/07/20 01:09:24;;;;;;;4.85;3.10;;;;;;;19.38;96.31;96522.13;4957841;28;20042;-66
2023/07/20 01:12:07;;;;;;;10.23;3.20;;;;;;;19.27;91.27;96514.00;4963322;28;20047;-68
2023/07/20 01:14:34;;;;;;;10.00;3.10;;;;;;;19.27;90.31;96517.56;4963042;28;20039;-68
2023/07/20 01:17:00;;;;;;;6.50;3.30;;;;;;;19.45;91.48;96516.41;4963091;28;20487;-66
2023/07/20 01:19:25;;;;;;;6.20;3.13;;;;;;;19.59;91.52;96515.28;4957787;28;20057;-67
2023/07/20 01:22:02;;;;;;;5.82;3.00;;;;;;;19.70;90.98;96510.31;4962742;28;20054;-67
2023/07/20 01:25:11;;;;;;;6.60;3.38;;;;;;;19.71;89.26;96511.84;4959379;28;20506;-66
2023/07/20 01:28:20;;;;;;;5.40;2.75;;;;;;;19.85;87.25;96517.09;4945237;28;20035;-66
2023/07/20 01:31:03;;;;;;;11.40;2.70;;;;;;;19.98;85.08;96511.63;4944286;28;20114;-66
2023/07/20 01:33:31;;;;;;;7.53;2.92;;;;;;;20.02;83.63;96511.56;4961414;28;20125;-68
2023/07/20 01:35:59;;;;;;;8.85;3.00;;;;;;;20.12;82.43;96515.31;4962129;28;20634;-68
2023/07/20 01:38:25;;;;;;;9.02;3.05;;;;;;;20.25;81.78;96510.59;4958486;28;20047;-68
2023/07/20 01:40:51;;;;;;;7.18;3.05;;;;;;;19.95;81.52;96509.75;4962883;28;20047;-68
2023/07/20 01:43:17;;;;;;;11.43;3.10;;;;;;;19.84;83.35;96512.78;4929848;28;20053;-69
2023/07/20 01:45:43;;;;;;;5.68;2.58;;;;;;;19.91;82.81;96511.81;4963349;28;20129;-67
2023/07/20 01:48:09;;;;;;;7.38;2.97;;;;;;;19.93;82.48;96514.16;4957261;28;20077;-68
2023/07/20 01:50:34;;;;;;;8.20;2.95;;;;;;;19.97;82.59;96515.66;4947777;28;20122;-67
2023/07/20 01:53:00;;;;;;;4.20;2.30;;;;;;;19.95;82.44;96508.94;4966551;28;20563;-67
2023/07/20 01:55:26;;;;;;;6.28;2.72;;;;;;;20.03;82.05;96513.13;4966237;28;20062;-67
2023/07/20 01:57:52;;;;;;;7.45;2.58;;;;;;;20.04;82.17;96511.91;4946915;28;20047;-67
2023/07/20 02:00:21;;;;;;;7.43;2.70;;;;;;;20.06;81.54;96506.72;4949890;28;20054;-67
2023/07/20 02:02:46;;;;;;;4.97;2.78;;;;;;;20.12;81.11;96509.75;4965422;28;20051;-67
2023/07/20 02:05:11;;;;;;;5.95;2.33;;;;;;;20.20;80.35;96506.34;4959786;28;20503;-67
2023/07/20 02:07:37;;;;;;;7.25;2.45;;;;;;;20.22;79.92;96506.69;4965609;28;20066;-67
2023/07/20 02:10:03;;;;;;;5.65;2.47;;;;;;;20.16;79.95;96522.31;4964809;28;20495;-68
2023/07/20 02:12:28;;;;;;;4.57;2.42;;;;;;;20.17;80.04;96512.00;4947458;28;20047;-67
2023/07/20 02:14:53;;;;;;;7.22;2.45;;;;;;;19.96;79.76;96518.84;4966099;28;20046;-67
2023/07/20 02:17:19;;;;;;;3.95;2.13;;;;;;;19.85;81.40;96516.34;4962168;28;20049;-66
2023/07/20 02:19:45;;;;;;;5.78;2.47;;;;;;;19.89;80.83;96521.81;4969881;28;20043;-67
2023/07/20 02:22:10;;;;;;;6.53;2.47;;;;;;;19.94;80.30;96515.72;4971572;28;20670;-68
2023/07/20 02:24:36;;;;;;;5.68;2.13;;;;;;;20.03;79.04;96525.03;4970787;28;20042;-68
2023/07/20 02:27:02;;;;;;;8.43;2.50;;;;;;;20.15;77.59;96520.78;4986288;28;20514;-68
2023/07/20 02:29:28;;;;;;;7.50;2.45;;;;;;;20.12;76.84;96518.09;4967488;28;20054;-67
2023/07/20 02:31:53;;;;;;;9.00;2.80;;;;;;;20.18;75.83;96516.34;4985264;28;20042;-67
2023/07/20 02:34:19;;;;;;;5.25;2.25;;;;;;;20.09;76.15;96516.16;4980136;28;20042;-67
2023/07/20 02:36:46;;;;;;;4.38;2.05;;;;;;;20.09;76.22;96510.59;4983747;28;20082;-67
2023/07/20 02:39:11;;;;;;;5.68;2.10;;;;;;;20.03;75.52;96510.34;4980032;28;20542;-67
2023/07/20 02:41:36;;;;;;;6.05;2.00;;;;;;;19.93;75.99;96522.50;4984587;28;20066;-67
2023/07/20 02:44:03;;;;;;;7.25;2.53;;;;;;;19.90;75.89;96517.78;4982797;28;20573;-68
2023/07/20 02:46:30;;;;;;;4.97;2.10;;;;;;;19.78;76.34;96525.59;4984544;28;20049;-67
2023/07/20 02:48:55;;;;;;;4.55;2.25;;;;;;;19.76;75.87;96530.03;4975601;28;20275;-67
2023/07/20 02:51:21;;;;;;;5.22;1.92;;;;;;;19.68;75.57;96527.41;4943575;28;20043;-67
2023/07/20 02:53:46;;;;;;;5.93;1.77;;;;;;;19.58;76.39;96524.84;4940103;28;20043;-67
2023/07/20 02:56:11;;;;;;;4.72;1.92;;;;;;;19.56;77.09;96528.06;4933806;28;20046;-67
2023/07/20 02:58:43;;;;;;;7.47;2.28;;;;;;;19.50;77.59;96535.34;4946811;28;20116;-69
2023/07/20 03:01:09;;;;;;;7.22;1.85;;;;;;;19.65;77.12;96535.81;4937015;28;20452;-66
2023/07/20 03:03:38;;;;;;;7.28;1.80;;;;;;;19.65;76.91;96533.81;4945164;28;20044;-67
2023/07/20 03:06:05;;;;;;;6.50;2.05;;;;;;;19.77;76.61;96539.94;4922861;29;20480;-70
2023/07/20 03:08:30;;;;;;;5.65;2.20;;;;;;;19.65;76.51;96538.59;4926733;29;20055;-69
2023/07/20 03:10:55;;;;;;;4.20;1.77;;;;;;;19.59;77.16;96538.31;4925459;29;20044;-68
2023/07/20 03:13:21;;;;;;;4.32;1.90;;;;;;;19.54;77.04;96541.59;4920614;29;20258;-68
2023/07/20 03:15:47;;;;;;;5.22;2.15;;;;;;;19.55;77.54;96542.38;4925919;29;20096;-68
2023/07/20 03:18:12;;;;;;;4.05;1.70;;;;;;;19.45;77.83;96539.41;4921942;29;20048;-68
2023/07/20 03:20:38;;;;;;;5.88;2.08;;;;;;;19.38;77.99;96544.34;4927110;29;20146;-68
2023/07/20 03:23:04;;;;;;;6.40;2.33;;;;;;;19.37;78.54;96537.97;4954296;28;20047;-69
2023/07/20 03:25:29;;;;;;;4.32;1.98;;;;;;;19.37;78.67;96548.31;4964039;28;20129;-68
2023/07/20 03:27:55;;;;;;;7.38;2.08;;;;;;;19.38;78.76;96550.66;4964839;28;20050;-67
2023/07/20 03:30:20;;;;;;;4.15;2.30;;;;;;;19.44;78.86;96553.72;4960224;28;20038;-67
2023/07/20 03:32:45;;;;;;;7.30;2.40;;;;;;;19.49;78.18;96556.75;4946915;28;20043;-67
2023/07/20 03:35:11;;;;;;;3.63;1.95;;;;;;;19.55;78.86;96554.25;4960890;28;20443;-68
2023/07/20 03:37:38;;;;;;;6.10;2.25;;;;;;;19.08;82.77;96560.75;4964739;28;20062;-69
2023/07/20 03:40:04;;;;;;;4.68;2.13;;;;;;;18.75;85.48;96557.00;4943153;28;20039;-68
2023/07/20 03:42:30;;;;;;;5.40;2.58;;;;;;;18.54;87.40;96566.50;4963732;28;20051;-67
2023/07/20 03:44:56;;;;;;;6.05;2.42;;;;;;;18.36;89.05;96563.25;4964215;28;20047;-67
2023/07/20 03:47:21;;;;;;;5.57;2.33;;;;;;;18.33;88.13;96554.56;4959953;28;20043;-68
2023/07/20 03:49:46;;;;;;;5.07;2.22;;;;;;;18.48;87.71;96559.88;4948821;28;20047;-68
2023/07/20 03:52:12;;;;;;;6.03;2.33;;;;;;;18.62;86.81;96565.16;4941794;28;20130;-68
2023/07/20 03:54:37;;;;;;;5.50;2.38;;;;;;;18.85;85.02;96561.63;4957086;28;20054;-68
2023/07/20 03:57:03;;;;;;;5.38;2.50;;;;;;;18.77;85.18;96562.13;4962974;28;20051;-69
2023/07/20 03:59:28;;;;;;;8.27;2.63;;;;;;;18.64;85.50;96570.28;4959083;28;20047;-68
2023/07/20 04:01:54;;;;;;;6.47;2.20;;;;;;;18.55;85.84;96568.06;4944514;28;20047;-69
2023/07/20 04:04:19;;;;;;;9.90;2.10;;;;;;;18.46;86.08;96574.16;4939864;28;20047;-68
2023/07/20 04:06:45;;;;;;;6.07;2.25;;;;;;;18.49;86.39;96569.75;4945102;28;20044;-67
2023/07/20 04:09:12;;;;;;;5.85;2.38;;;;;;;18.65;85.08;96575.41;4923587;28;20040;-68
2023/07/20 04:11:38;;;;;;;6.68;2.20;;;;;;;18.91;83.13;96576.56;4929972;29;20496;-68
2023/07/20 04:14:04;;;;;;;5.13;2.50;;;;;;;19.07;82.43;96575.88;4940457;28;20040;-69
2023/07/20 04:16:30;;;;;;;5.80;2.20;;;;;;;19.04;82.65;96581.50;4929806;28;20536;-68
2023/07/20 04:18:56;;;;;;;4.45;2.40;;;;;;;19.00;82.78;96578.78;4925995;29;20047;-68
2023/07/20 04:21:22;;;;;;;5.15;2.40;;;;;;;19.06;82.54;96577.06;4923945;28;20035;-68
2023/07/20 04:23:47;;;;;;;4.72;2.38;;;;;;;19.26;81.71;96582.63;4944709;28;20039;-68
2023/07/20 04:26:14;;;;;;;9.82;3.20;;;;;;;19.26;80.92;96588.16;4938700;28;20044;-68
2023/07/20 04:28:42;;;;;;;10.40;2.47;;;;;;;19.33;81.01;96581.69;4944734;28;20110;-68
2023/07/20 04:31:12;;;;;;;9.15;2.38;;;;;;;19.25;81.07;96600.50;4939685;28;20035;-69
2023/07/20 04:33:39;;;;;;;5.40;2.13;;;;;;;19.25;81.18;96585.84;4945580;28;20035;-68
2023/07/20 04:36:04;;;;;;;6.38;2.00;;;;;;;19.35;79.96;96595.94;4943819;28;20043;-69
2023/07/20 04:38:30;;;;;;;8.25;2.20;;;;;;;19.40;78.52;96601.00;4962182;28;20058;-68
2023/07/20 04:40:55;;;;;;;6.57;2.20;;;;;;;19.39;78.59;96604.19;4944923;28;20051;-69
2023/07/20 04:43:21;;;;;;;9.35;2.50;;;;;;;19.37;78.11;96595.50;4939942;28;22248;-69
2023/07/20 04:45:46;;;;;;;6.38;2.20;;;;;;;19.10;78.12;96590.88;4945223;28;20115;-69
2023/07/20 04:48:14;;;;;;;4.38;2.35;;;;;;;18.93;79.53;96590.00;4941670;28;20460;-70
2023/07/20 04:50:44;;;;;;;3.90;2.13;;;;;;;19.00;80.24;96589.09;4945056;28;20047;-69
2023/07/20 04:53:11;;;;;;;5.13;2.38;;;;;;;19.03;83.10;96593.78;4956757;28;20426;-70
2023/07/20 04:55:40;;;;;;;7.57;3.00;;;;;;;19.17;84.31;96592.75;4975304;28;20133;-69
2023/07/20 04:58:06;;;;;;;12.20;3.13;;;;;;;19.31;85.50;96592.47;4977275;28;20494;-68
2023/07/20 05:00:33;;;;;;;4.88;2.58;;;;;;;19.16;81.25;96599.50;4952989;28;20073;-68
2023/07/20 05:02:58;;;;;;;5.65;2.30;;;;;;;19.03;80.82;96602.09;4962123;28;20081;-69
2023/07/20 05:05:24;;;;;;;10.50;2.85;;;;;;;19.16;81.00;96605.84;4958392;28;20129;-71
2023/07/20 05:07:49;;;;;;;9.85;3.10;;;;;;;19.37;80.19;96604.63;4963564;28;20049;-70
2023/07/20 05:10:14;;;;;;;5.85;2.63;;;;;;;19.31;85.84;96605.56;4957123;28;20043;-69
2023/07/20 05:12:40;;;;;;;20.20;4.35;;;;;;;19.40;86.87;96603.00;4962826;28;20386;-69
2023/07/20 05:15:06;;;;;;;4.88;2.25;;;;;;;19.63;82.76;96604.91;4957917;28;20090;-70
2023/07/20 05:17:31;;;;;;;5.18;2.33;;;;;;;19.97;80.62;96609.34;4962242;28;20043;-69
2023/07/20 05:19:56;;;;;;;7.75;2.38;;;;;;;19.99;76.94;96609.72;4962615;28;20083;-69
2023/07/20 05:22:23;;;;;;;5.32;2.53;;;;;;;19.90;77.57;96612.28;4957185;28;20734;-67
2023/07/20 05:24:48;;;;;;;5.57;2.53;;;;;;;19.99;78.03;96610.50;4962359;28;20057;-70
2023/07/20 05:27:13;;;;;;;4.35;2.08;;;;;;;20.03;77.45;96610.44;4957427;28;20130;-69
2023/07/20 05:29:46;;;;;;;5.28;2.75;;;;;;;20.05;77.81;96606.00;4963055;28;20047;-68
2023/07/20 05:32:12;;;;;;;4.00;2.15;;;;;;;19.97;77.43;96601.81;4957855;28;20045;-68
2023/07/20 05:34:38;;;;;;;7.97;2.47;;;;;;;20.03;76.73;96599.31;4962465;28;20038;-69
2023/07/20 05:37:03;;;;;;;7.72;3.47;;;;;;;20.16;76.21;96599.41;4942094;28;20101;-65
2023/07/20 05:39:29;;;;;;;8.63;3.40;;;;;;;20.32;76.04;96593.09;4966424;28;20097;-67
2023/07/20 05:41:54;;;;;;;5.85;2.35;;;;;;;20.36;74.01;96588.22;4967068;28;20404;-70
2023/07/20 05:44:19;;;;;;;6.82;2.72;;;;;;;20.46;73.77;96587.16;4961438;28;20385;-67
2023/07/20 05:46:45;;;;;;;70.13;50.20;;;;;;;21.23;70.91;96593.16;4966627;28;20043;-70
2023/07/20 05:49:10;;;;;;;7.60;3.13;;;;;;;21.98;67.00;96600.59;4956856;28;20035;-70
2023/07/20 05:51:36;;;;;;;5.25;2.42;;;;;;;22.64;63.27;96606.50;4947929;29;20043;-70
2023/07/20 05:54:01;;;;;;;5.30;2.78;;;;;;;23.22;59.02;96600.53;4964808;28;20057;-68
2023/07/20 05:56:26;;;;;;;6.82;2.70;;;;;;;23.31;57.84;96602.63;4972152;28;20043;-69
2023/07/20 05:58:52;;;;;;;5.32;2.55;;;;;;;23.40;56.10;96608.28;4985040;28;20042;-69
2023/07/20 06:01:18;;;;;;;6.53;2.17;;;;;;;23.29;56.73;96599.50;4962844;28;20523;-69
2023/07/20 06:03:44;;;;;;;8.57;3.05;;;;;;;23.47;56.21;96608.03;4966086;28;20634;-68
2023/07/20 06:06:11;;;;;;;6.68;2.60;;;;;;;23.43;56.14;96612.19;4961443;28;20043;-67
2023/07/20 06:08:37;;;;;;;5.90;2.67;;;;;;;23.23;55.70;96606.94;4965530;28;20041;-70
2023/07/20 06:11:02;;;;;;;7.28;2.45;;;;;;;22.70;56.21;96618.66;4964048;28;20035;-66
2023/07/20 06:13:27;;;;;;;7.65;2.42;;;;;;;21.91;61.73;96605.16;4963033;28;20554;-69
2023/07/20 06:15:53;;;;;;;7.03;2.63;;;;;;;21.46;64.92;96610.84;4966295;28;20038;-69
2023/07/20 06:18:20;;;;;;;5.72;2.42;;;;;;;21.62;64.54;96601.66;4961657;28;20046;-67
2023/07/20 06:20:50;;;;;;;8.90;2.58;;;;;;;21.46;63.68;96603.28;4963674;28;20038;-68
2023/07/20 06:23:16;;;;;;;;;;;;;;;21.38;67.38;96611.03;4960292;28;20091;-68
2023/07/20 06:25:41;;;;;;;4.55;2.75;;;;;;;21.56;66.96;96604.97;4965471;28;19925;-68
2023/07/20 06:28:06;;;;;;;6.40;2.78;;;;;;;21.48;68.05;96602.84;4961690;28;20562;-68
2023/07/20 06:30:34;;;;;;;7.28;2.60;;;;;;;21.45;66.50;96606.50;4966275;28;20039;-68
2023/07/20 06:33:00;;;;;;;9.23;2.58;;;;;;;21.60;61.53;96607.66;4965807;28;20042;-68
2023/07/20 06:35:26;;;;;;;7.30;2.53;;;;;;;21.90;59.38;96606.38;4963552;28;20796;-68
2023/07/20 06:37:51;;;;;;;10.07;2.60;;;;;;;22.08;60.25;96616.22;4965918;28;20038;-68
2023/07/20 06:40:17;;;;;;;9.35;2.60;;;;;;;21.94;62.15;96614.66;4960123;28;20538;-66
2023/07/20 06:42:43;;;;;;;4.85;2.65;;;;;;;22.23;59.69;96613.78;4964573;28;20059;-68
2023/07/20 06:45:09;;;;;;;5.07;2.50;;;;;;;22.23;58.39;96611.75;4959559;28;20042;-67
2023/07/20 06:47:34;;;;;;;8.25;2.88;;;;;;;22.27;58.51;96615.25;4964179;28;20043;-68
2023/07/20 06:49:59;;;;;;;4.75;2.40;;;;;;;22.31;56.80;96615.91;4954673;28;20043;-67
2023/07/20 06:52:25;;;;;;;5.72;2.65;;;;;;;22.49;56.00;96614.56;4941276;29;20070;-68
2023/07/20 06:54:51;;;;;;;7.97;2.50;;;;;;;22.85;54.87;96605.00;4934127;28;20133;-69
2023/07/20 06:57:16;;;;;;;10.98;3.08;;;;;;;23.58;53.38;96612.47;4970292;28;20055;-67
2023/07/20 06:59:42;;;;;;;8.18;2.95;;;;;;;24.86;47.98;96608.69;4979510;28;20403;-66
2023/07/20 07:02:08;;;;;;;7.25;3.28;;;;;;;25.09;47.31;96612.91;4958978;28;20061;-66
2023/07/20 07:04:33;;;;;;;5.80;2.85;;;;;;;25.08;47.79;96616.19;4965222;28;20050;-67
2023/07/20 07:06:59;;;;;;;4.50;2.10;;;;;;;25.24;47.21;96606.69;4965949;28;20050;-68
2023/07/20 07:09:24;;;;;;;5.78;2.50;;;;;;;24.04;49.08;96604.38;4960334;28;20074;-67
2023/07/20 07:11:50;;;;;;;5.28;2.60;;;;;;;24.09;47.83;96609.34;4965104;28;20053;-69
2023/07/20 07:14:15;;;;;;;5.55;2.50;;;;;;;23.86;48.64;96613.44;4959209;28;20042;-69
2023/07/20 07:16:40;;;;;;;4.93;2.13;;;;;;;24.11;48.25;96606.09;4965221;28;20039;-68
2023/07/20 07:19:07;;;;;;;7.15;2.42;;;;;;;24.50;47.17;96612.16;4960256;28;20039;-67
2023/07/20 07:21:32;;;;;;;6.18;2.42;;;;;;;24.74;46.64;96606.78;4964368;28;20518;-68
2023/07/20 07:23:59;;;;;;;9.38;2.33;;;;;;;25.32;44.58;96608.75;4946171;29;20051;-69
2023/07/20 07:26:25;;;;;;;5.03;2.05;;;;;;;25.89;42.71;96613.81;4959405;28;20577;-67
2023/07/20 07:28:50;;;;;;;3.90;2.10;;;;;;;25.98;41.89;96618.63;4960501;28;20489;-67
2023/07/20 07:31:16;;;;;;;5.22;2.30;;;;;;;25.35;43.91;96613.44;4939909;29;20071;-67
2023/07/20 07:33:41;;;;;;;6.22;2.38;;;;;;;25.67;43.15;96613.22;4959455;28;20065;-67
2023/07/20 07:36:07;;;;;;;7.05;2.30;;;;;;;26.20;43.10;96618.44;4971337;28;20077;-67
2023/07/20 07:38:32;;;;;;;9.25;2.42;;;;;;;26.20;41.77;96612.03;4949690;28;20503;-68
2023/07/20 07:40:58;;;;;;;6.80;2.20;;;;;;;26.73;41.42;96611.50;4944592;28;20050;-70
2023/07/20 07:43:24;;;;;;;5.90;2.30;;;;;;;26.97;39.98;96619.91;4960108;28;20415;-67
2023/07/20 07:45:50;;;;;;;5.78;2.50;;;;;;;24.54;43.31;96608.00;4964389;28;20046;-67
2023/07/20 07:48:15;;;;;;;6.35;2.35;;;;;;;22.89;49.32;96602.88;4958046;28;20400;-69
2023/07/20 07:50:41;;;;;;;8.70;2.53;;;;;;;24.18;46.75;96608.63;4947096;28;20043;-67
2023/07/20 07:53:08;;;;;;;5.43;2.00;;;;;;;26.17;41.44;96607.38;4922334;29;20050;-68
2023/07/20 07:55:34;;;;;;;7.88;2.08;;;;;;;26.46;39.77;96601.16;4943909;29;20049;-66
2023/07/20 07:58:00;;;;;;;16.45;2.70;;;;;;;26.86;39.40;96612.03;4944432;29;20039;-70
2023/07/20 08:00:26;;;;;;;4.60;2.10;;;;;;;27.51;38.31;96614.38;4949900;28;20057;-65
2023/07/20 08:02:51;;;;;;;6.85;2.33;;;;;;;25.74;41.64;96610.09;4963733;28;20699;-69
2023/07/20 08:05:16;;;;;;;5.35;2.05;;;;;;;26.62;41.04;96602.84;4958878;28;20081;-69
2023/07/20 08:07:42;;;;;;;10.68;2.22;;;;;;;28.00;38.58;96613.00;4963057;28;20496;-68
2023/07/20 08:10:08;;;;;;;4.72;1.98;;;;;;;28.65;37.21;96614.25;4958640;28;20492;-69
2023/07/20 08:12:34;;;;;;;6.18;2.10;;;;;;;29.49;34.89;96617.41;4963794;28;20063;-68
2023/07/20 08:14:59;;;;;;;5.30;2.33;;;;;;;26.83;37.26;96606.59;4946315;28;20396;-69
2023/07/20 08:17:26;;;;;;;5.85;2.38;;;;;;;28.11;36.81;96605.97;4958835;28;20051;-69
2023/07/20 08:19:51;;;;;;;4.85;2.00;;;;;;;29.52;34.08;96602.31;4964062;28;20570;-70
2023/07/20 08:22:16;;;;;;;4.88;2.08;;;;;;;29.99;33.88;96605.09;4957948;28;20046;-68
2023/07/20 08:24:43;;;;;;;4.65;1.95;;;;;;;26.81;36.66;96597.88;4963809;28;20380;-67
2023/07/20 08:27:09;;;;;;;4.05;1.83;;;;;;;25.54;39.39;96602.19;4959695;28;20057;-66
2023/07/20 08:29:37;;;;;;;6.70;2.00;;;;;;;23.60;43.82;96604.38;4947012;28;20050;-70
2023/07/20 08:32:04;;;;;;;4.30;1.80;;;;;;;24.16;43.32;96594.31;4961321;28;20133;-62
2023/07/20 08:34:30;;;;;;;4.80;2.40;;;;;;;25.63;40.25;96604.97;4970629;28;20294;-68
2023/07/20 08:36:56;;;;;;;4.03;2.10;;;;;;;26.43;39.24;96605.69;4963498;28;20115;-69
2023/07/20 08:39:22;;;;;;;4.18;2.03;;;;;;;25.41;40.49;96599.56;4958456;28;20133;-68
2023/07/20 08:41:49;;;;;;;6.05;1.80;;;;;;;26.24;39.43;96602.19;4963566;28;20303;-69
2023/07/20 08:44:15;;;;;;;5.70;2.17;;;;;;;26.99;38.46;96605.41;4957945;28;20097;-69
2023/07/20 08:46:41;;;;;;;3.53;2.08;;;;;;;27.95;36.72;96605.22;4963117;28;20066;-68
2023/07/20 08:49:06;;;;;;;6.97;1.95;;;;;;;26.21;39.83;96597.53;4954151;28;20039;-68
2023/07/20 08:51:33;;;;;;;3.92;2.25;;;;;;;26.92;38.97;96592.50;4943546;29;20055;-70
2023/07/20 08:53:59;;;;;;;4.90;2.00;;;;;;;28.09;36.31;96605.69;4925777;29;20039;-68
2023/07/20 08:56:26;;;;;;;5.47;1.90;;;;;;;28.86;35.38;96610.19;4922187;29;20043;-68
2023/07/20 08:58:55;;;;;;;8.40;2.20;;;;;;;29.53;33.64;96609.50;4943830;29;20078;-68
2023/07/20 09:01:22;;;;;;;4.07;2.00;;;;;;;28.79;34.21;96604.97;4955811;28;20109;-69
2023/07/20 09:03:47;;;;;;;7.38;2.13;;;;;;;28.59;35.89;96606.53;4962801;28;20039;-69
2023/07/20 09:06:13;;;;;;;5.75;2.22;;;;;;;28.14;35.70;96600.16;4956702;28;20423;-69
2023/07/20 09:08:40;;;;;;;5.03;2.05;;;;;;;28.63;36.22;96591.44;4944973;28;20173;-68
2023/07/20 09:11:05;;;;;;;9.30;2.30;;;;;;;28.86;34.96;96607.38;4958679;28;20126;-67
2023/07/20 09:13:32;;;;;;;4.32;2.03;;;;;;;28.84;34.28;96595.81;4961916;28;20540;-68
2023/07/20 09:15:58;;;;;;;4.82;1.98;;;;;;;28.08;35.33;96596.47;4962860;28;20038;-69
2023/07/20 09:18:34;;;;;;;4.38;2.15;;;;;;;27.94;35.57;96594.44;4958372;28;20114;-69
2023/07/20 09:21:06;;;;;;;7.57;2.50;;;;;;;26.39;38.05;96588.25;4962324;28;20480;-69
2023/07/20 09:23:32;;;;;;;5.63;1.80;;;;;;;26.61;38.69;96584.41;4945142;28;20112;-68
2023/07/20 09:25:58;;;;;;;4.13;1.95;;;;;;;27.26;37.89;96577.13;4943316;29;20089;-70
2023/07/20 09:28:24;;;;;;;5.43;2.13;;;;;;;28.32;36.97;96579.44;4938742;29;20705;-69
2023/07/20 09:30:49;;;;;;;4.03;2.28;;;;;;;29.02;35.09;96588.38;4941897;29;20503;-70
2023/07/20 09:33:19;;;;;;;5.55;2.13;;;;;;;28.78;34.87;96578.84;4939977;28;20043;-68
2023/07/20 09:35:45;;;;;;;8.10;2.40;;;;;;;28.96;35.57;96577.78;4970286;28;20034;-69
2023/07/20 09:38:10;;;;;;;5.43;2.10;;;;;;;28.50;35.92;96578.41;4964115;28;20039;-68
2023/07/20 09:40:39;;;;;;;4.43;1.80;;;;;;;27.84;37.35;96579.69;4961042;28;20047;-70
2023/07/20 09:43:08;;;;;;;7.18;1.85;;;;;;;28.48;35.48;96578.13;4960517;28;20051;-67
2023/07/20 09:45:35;;;;;;;5.40;2.00;;;;;;;28.54;35.36;96569.78;4974692;28;20043;-69
2023/07/20 09:48:07;;;;;;;7.60;2.17;;;;;;;28.68;35.33;96573.84;4961846;28;20094;-69
2023/07/20 09:50:33;;;;;;;6.40;1.92;;;;;;;28.11;35.79;96566.56;4957274;28;20042;-69
2023/07/20 09:53:04;;;;;;;4.80;1.90;;;;;;;28.72;35.44;96568.75;4945505;28;20047;-68
2023/07/20 09:55:30;;;;;;;6.30;2.60;;;;;;;28.11;35.62;96566.56;4962096;28;20042;-68
2023/07/20 09:57:56;;;;;;;9.68;2.90;;;;;;;28.51;35.29;96565.13;4962462;28;20043;-68
2023/07/20 10:00:21;;;;;;;11.68;2.92;;;;;;;27.98;36.33;96573.31;4957650;28;21537;-67
2023/07/20 10:02:51;;;;;;;7.85;2.88;;;;;;;27.13;37.54;96558.91;4962239;28;20076;-68
2023/07/20 10:05:17;;;;;;;8.60;2.55;;;;;;;27.46;37.34;96553.97;4958095;28;20047;-68
2023/07/20 10:07:50;;;;;;;8.10;2.30;;;;;;;27.15;38.10;96551.53;4944694;28;20046;-66
2023/07/20 10:10:18;;;;;;;12.32;3.47;;;;;;;27.01;39.01;96544.66;4955852;28;20042;-67
2023/07/20 10:12:48;;;;;;;8.90;3.70;;;;;;;27.34;37.84;96545.81;4945509;28;20399;-66
2023/07/20 10:15:20;;;;;;;5.97;2.58;;;;;;;27.42;38.65;96538.53;4957198;28;20039;-67
2023/07/20 10:18:14;;;;;;;9.15;2.90;;;;;;;26.98;38.98;96539.22;4962332;28;20035;-67
2023/07/20 10:20:43;;;;;;;16.90;2.67;;;;;;;26.90;39.23;96544.41;4950789;28;20125;-68
2023/07/20 10:23:09;;;;;;;4.15;2.05;;;;;;;26.26;40.47;96535.13;4942520;28;20078;-67
2023/07/20 10:25:41;;;;;;;6.95;2.42;;;;;;;26.64;39.34;96536.47;4965497;28;20046;-66
2023/07/20 10:28:07;;;;;;;8.77;2.78;;;;;;;27.36;38.39;96532.81;4975946;28;20109;-68
2023/07/20 10:30:35;;;;;;;6.40;2.47;;;;;;;26.88;39.58;96530.88;4973735;28;20047;-67
2023/07/20 10:33:02;;;;;;;5.00;2.22;;;;;;;26.99;40.43;96533.13;4964592;28;20411;-68
2023/07/20 10:35:28;;;;;;;7.38;2.28;;;;;;;27.69;38.52;96531.84;4962144;28;20042;-68
2023/07/20 10:38:01;;;;;;;8.00;2.10;;;;;;;28.03;37.49;96530.38;4955748;28;20065;-67
2023/07/20 10:40:27;;;;;;;7.10;2.40;;;;;;;27.98;37.21;96535.91;4961073;28;20054;-68
2023/07/20 10:43:03;;;;;;;4.53;2.38;;;;;;;28.39;37.47;96528.34;4965389;28;20058;-68
2023/07/20 10:45:49;;;;;;;7.22;1.60;;;;;;;28.23;38.08;96523.25;4963841;28;20125;-67
2023/07/20 10:48:17;;;;;;;7.47;2.72;;;;;;;27.83;37.97;96516.97;4961677;28;20035;-68
2023/07/20 10:50:43;;;;;;;6.95;1.98;;;;;;;27.73;37.93;96520.38;4932182;29;20047;-67
2023/07/20 10:53:17;;;;;;;7.72;2.13;;;;;;;27.40;38.78;96518.56;4941495;29;20067;-67
2023/07/20 10:55:44;;;;;;;7.45;2.50;;;;;;;27.54;38.21;96511.38;4946159;29;20416;-66
2023/07/20 10:58:11;;;;;;;3.28;1.75;;;;;;;27.69;38.05;96511.38;4945362;29;20039;-67
2023/07/20 11:00:38;;;;;;;6.45;2.22;;;;;;;27.48;39.11;96504.88;4961402;28;20046;-67
2023/07/20 11:03:04;;;;;;;4.43;2.13;;;;;;;26.94;40.57;96491.63;4962191;28;20042;-65
2023/07/20 11:05:38;;;;;;;8.32;2.13;;;;;;;26.87;39.25;96497.63;4965111;28;20122;-66
2023/07/20 11:08:11;;;;;;;5.70;2.35;;;;;;;26.55;39.88;96490.81;4961115;28;20097;-65
2023/07/20 11:10:37;;;;;;;6.53;1.95;;;;;;;26.70;40.00;96494.47;4964705;28;20046;-68
2023/07/20 11:13:18;;;;;;;6.07;2.00;;;;;;;26.75;39.51;96502.22;4963425;28;20093;-66
2023/07/20 11:15:48;;;;;;;6.68;1.90;;;;;;;26.87;39.61;96489.19;4965585;28;20443;-67
2023/07/20 11:18:14;;;;;;;6.65;2.70;;;;;;;25.44;42.87;96478.06;4960109;28;20062;-68
2023/07/20 11:20:40;;;;;;;7.97;1.90;;;;;;;24.93;44.15;96473.16;4971321;28;20043;-67
2023/07/20 11:23:06;;;;;;;6.00;2.10;;;;;;;25.17;42.54;96467.66;4965294;28;20061;-68
2023/07/20 11:25:39;;;;;;;5.07;2.05;;;;;;;25.53;42.15;96472.44;4970196;28;20137;-67
2023/07/20 11:28:10;;;;;;;6.63;2.20;;;;;;;25.75;42.32;96468.63;4961804;28;20039;-66
2023/07/20 11:30:37;;;;;;;4.05;1.85;;;;;;;26.25;41.93;96471.03;4966383;28;20051;-68
2023/07/20 11:33:03;;;;;;;4.13;2.10;;;;;;;26.57;41.22;96468.66;4963517;28;20070;-67